createdAt,value
2018-06-11T00:01:33.487Z,950.65
2018-06-11T00:03:59.779Z,950.64
2018-06-11T00:06:26.069Z,950.66
2018-06-11T00:08:52.360Z,950.58
2018-06-11T00:11:18.658Z,950.59
2018-06-11T00:13:44.949Z,950.59
2018-06-11T00:16:11.280Z,950.64
2018-06-11T00:18:37.568Z,950.62
2018-06-11T00:21:03.862Z,950.66
2018-06-11T00:23:30.157Z,950.63
2018-06-11T00:25:56.489Z,950.60
2018-06-11T00:28:22.775Z,950.62
2018-06-11T00:30:49.068Z,950.65
2018-06-11T00:33:15.367Z,950.63
2018-06-11T00:35:41.656Z,950.70
2018-06-11T00:38:07.948Z,950.66
2018-06-11T00:40:34.236Z,950.62
2018-06-11T00:43:00.526Z,950.64
2018-06-11T00:45:26.815Z,950.60
2018-06-11T00:47:53.110Z,950.65
2018-06-11T00:50:19.404Z,950.68
2018-06-11T00:52:45.698Z,950.66
2018-06-11T00:55:12.022Z,950.75
2018-06-11T00:57:38.312Z,950.71
2018-06-11T01:00:04.645Z,950.71
2018-06-11T01:02:30.939Z,950.67
2018-06-11T01:04:57.228Z,950.71
2018-06-11T01:07:23.564Z,950.65
2018-06-11T01:09:49.850Z,950.66
2018-06-11T01:12:16.186Z,950.62
2018-06-11T01:14:42.478Z,950.59
2018-06-11T01:17:08.821Z,950.52
2018-06-11T01:19:35.108Z,950.55
2018-06-11T01:22:01.411Z,950.54
2018-06-11T01:24:27.698Z,950.49
2018-06-11T01:26:54.032Z,950.45
2018-06-11T01:29:20.390Z,950.44
2018-06-11T01:31:46.685Z,950.41
2018-06-11T01:34:12.976Z,950.41
2018-06-11T01:36:39.269Z,950.40
2018-06-11T01:39:05.568Z,950.49
2018-06-11T01:41:31.851Z,950.47
2018-06-11T01:43:58.142Z,950.48
2018-06-11T01:46:24.445Z,950.44
2018-06-11T01:48:50.754Z,950.44
2018-06-11T01:51:17.039Z,950.40
2018-06-11T01:53:43.334Z,950.46
2018-06-11T01:56:09.631Z,950.49
2018-06-11T02:01:01.997Z,950.49
2018-06-11T02:03:28.315Z,950.44
2018-06-11T02:05:54.598Z,950.46
2018-06-11T02:08:20.892Z,950.51
2018-06-11T02:10:47.183Z,950.48
2018-06-11T02:13:13.476Z,950.53
2018-06-11T02:15:39.766Z,950.55
2018-06-11T02:18:06.055Z,950.57
2018-06-11T02:20:32.354Z,950.60
2018-06-11T02:22:58.694Z,950.54
2018-06-11T02:25:25.027Z,950.57
2018-06-11T02:27:51.356Z,950.61
2018-06-11T02:30:17.684Z,950.61
2018-06-11T02:32:43.982Z,950.63
2018-06-11T02:35:10.276Z,950.58
2018-06-11T02:37:36.570Z,950.56
2018-06-11T02:40:02.875Z,950.58
2018-06-11T02:42:29.204Z,950.54
2018-06-11T02:44:55.497Z,950.56
2018-06-11T02:47:21.833Z,950.55
2018-06-11T02:49:48.125Z,950.52
2018-06-11T02:52:14.459Z,950.62
2018-06-11T02:54:40.748Z,950.64
2018-06-11T02:57:07.035Z,950.72
2018-06-11T02:59:33.330Z,950.70
2018-06-11T03:01:59.626Z,950.75
2018-06-11T03:04:25.919Z,950.72
2018-06-11T03:06:52.204Z,950.83
2018-06-11T03:09:18.500Z,950.80
2018-06-11T03:11:44.782Z,950.79
2018-06-11T03:14:11.111Z,950.84
2018-06-11T03:16:37.403Z,950.87
2018-06-11T03:19:03.688Z,950.88
2018-06-11T03:21:29.981Z,950.89
2018-06-11T03:23:56.267Z,950.92
2018-06-11T03:26:22.557Z,950.92
2018-06-11T03:28:48.855Z,950.84
2018-06-11T03:31:15.183Z,950.83
2018-06-11T03:33:41.470Z,950.85
2018-06-11T03:36:07.794Z,950.90
2018-06-11T03:38:34.084Z,950.88
2018-06-11T03:41:00.416Z,950.89
2018-06-11T03:43:26.711Z,950.91
2018-06-11T03:45:53.010Z,950.98
2018-06-11T03:48:19.344Z,950.99
2018-06-11T03:50:45.640Z,950.98
2018-06-11T03:53:11.927Z,951.03
2018-06-11T03:55:38.215Z,951.12
2018-06-11T03:58:04.511Z,951.09
2018-06-11T04:00:30.799Z,951.14
2018-06-11T04:02:57.088Z,951.16
2018-06-11T04:05:23.380Z,951.17
2018-06-11T04:07:49.666Z,951.22
2018-06-11T04:10:15.958Z,951.24
2018-06-11T04:12:42.248Z,951.26
2018-06-11T04:15:08.539Z,951.19
2018-06-11T04:17:34.827Z,951.26
2018-06-11T04:20:01.125Z,951.29
2018-06-11T04:22:27.416Z,951.26
2018-06-11T04:24:53.706Z,951.21
2018-06-11T04:27:20.008Z,951.29
2018-06-11T04:29:46.300Z,951.28
2018-06-11T04:32:12.590Z,951.32
2018-06-11T04:34:38.884Z,951.24
2018-06-11T04:37:05.194Z,951.24
2018-06-11T04:39:31.488Z,951.30
2018-06-11T04:41:57.781Z,951.39
2018-06-11T04:44:24.108Z,951.34
2018-06-11T04:46:50.402Z,951.33
2018-06-11T04:49:16.737Z,951.33
2018-06-11T04:51:43.077Z,951.35
2018-06-11T04:54:09.363Z,951.41
2018-06-11T04:56:35.655Z,951.43
2018-06-11T04:59:01.962Z,951.43
2018-06-11T05:01:28.253Z,951.47
2018-06-11T05:03:54.547Z,951.52
2018-06-11T05:06:20.841Z,951.51
2018-06-11T05:08:47.138Z,951.52
2018-06-11T05:11:13.433Z,951.48
2018-06-11T05:13:39.768Z,951.58
2018-06-11T05:16:06.058Z,951.53
2018-06-11T05:18:32.348Z,951.55
2018-06-11T05:20:58.644Z,951.55
2018-06-11T05:23:24.941Z,951.59
2018-06-11T05:25:51.238Z,951.62
2018-06-11T05:28:17.532Z,951.63
2018-06-11T05:30:43.827Z,951.69
2018-06-11T05:33:10.112Z,951.68
2018-06-11T05:35:36.415Z,951.70
2018-06-11T05:38:02.712Z,951.66
2018-06-11T05:40:29.030Z,951.79
2018-06-11T05:42:55.314Z,951.75
2018-06-11T05:45:21.609Z,951.83
2018-06-11T05:47:47.899Z,951.82
2018-06-11T05:50:14.197Z,951.88
2018-06-11T05:52:40.482Z,951.89
2018-06-11T05:55:06.775Z,951.87
2018-06-11T05:57:33.064Z,951.92
2018-06-11T05:59:59.357Z,951.91
2018-06-11T06:02:25.666Z,951.86
2018-06-11T06:04:52.025Z,951.78
2018-06-11T06:07:18.354Z,951.79
2018-06-11T06:09:44.641Z,951.81
2018-06-11T06:12:10.930Z,951.77
2018-06-11T06:14:37.264Z,951.80
2018-06-11T06:17:03.562Z,951.79
2018-06-11T06:19:29.897Z,951.81
2018-06-11T06:21:56.139Z,951.79
2018-06-11T06:24:22.433Z,951.74
2018-06-11T06:26:48.752Z,951.77
2018-06-11T06:29:15.012Z,951.72
2018-06-11T06:31:41.311Z,951.67
2018-06-11T06:34:07.609Z,951.65
2018-06-11T06:36:33.891Z,951.63
2018-06-11T06:39:00.183Z,951.66
2018-06-11T06:41:26.472Z,951.74
2018-06-11T06:43:52.770Z,951.67
2018-06-11T06:46:19.072Z,951.62
2018-06-11T06:48:45.358Z,951.66
2018-06-11T06:51:11.651Z,951.65
2018-06-11T06:53:37.973Z,951.57
2018-06-11T06:56:04.232Z,951.60
2018-06-11T06:58:30.524Z,951.59
2018-06-11T07:00:56.817Z,951.55
2018-06-11T07:03:23.105Z,951.56
2018-06-11T07:05:49.403Z,951.56
2018-06-11T07:08:15.693Z,951.49
2018-06-11T07:10:41.990Z,951.50
2018-06-11T07:13:08.281Z,951.47
2018-06-11T07:15:34.602Z,951.36
2018-06-11T07:18:00.904Z,951.34
2018-06-11T07:20:27.203Z,951.34
2018-06-11T07:22:53.492Z,951.30
2018-06-11T07:25:19.790Z,951.35
2018-06-11T07:27:46.075Z,951.32
2018-06-11T07:30:12.406Z,951.30
2018-06-11T07:32:38.701Z,951.26
2018-06-11T07:35:05.048Z,951.26
2018-06-11T07:37:31.377Z,951.30
2018-06-11T07:39:57.639Z,951.35
2018-06-11T07:42:23.937Z,951.29
2018-06-11T07:44:50.232Z,951.27
2018-06-11T07:47:16.524Z,951.23
2018-06-11T07:49:42.810Z,951.17
2018-06-11T07:52:09.134Z,951.14
2018-06-11T07:54:35.423Z,951.12
2018-06-11T07:57:01.717Z,951.12
2018-06-11T07:59:28.006Z,951.15
2018-06-11T08:01:54.304Z,951.17
2018-06-11T08:04:20.585Z,951.14
2018-06-11T08:06:46.874Z,951.17
2018-06-11T08:09:13.165Z,951.11
2018-06-11T08:11:39.458Z,951.13
2018-06-11T08:14:05.749Z,951.16
2018-06-11T08:16:32.044Z,951.10
2018-06-11T08:18:58.336Z,951.09
2018-06-11T08:21:24.626Z,951.09
2018-06-11T08:23:50.917Z,951.09
2018-06-11T08:26:17.242Z,951.05
2018-06-11T08:28:43.528Z,951.12
2018-06-11T08:31:09.822Z,951.07
2018-06-11T08:33:36.122Z,951.08
2018-06-11T08:36:02.414Z,951.09
2018-06-11T08:38:28.698Z,951.05
2018-06-11T08:40:54.987Z,951.06
2018-06-11T08:43:21.284Z,951.10
2018-06-11T08:45:47.616Z,951.07
2018-06-11T08:48:13.913Z,951.04
2018-06-11T08:50:40.205Z,951.10
2018-06-11T08:53:06.503Z,951.04
2018-06-11T08:55:32.801Z,950.96
2018-06-11T08:57:59.095Z,951.04
2018-06-11T09:00:25.389Z,951.03
2018-06-11T09:02:51.684Z,950.97
2018-06-11T09:05:17.970Z,950.96
2018-06-11T09:07:44.258Z,951.02
2018-06-11T09:10:10.549Z,950.98
2018-06-11T09:12:36.884Z,951.02
2018-06-11T09:15:03.125Z,951.07
2018-06-11T09:17:29.416Z,950.98
2018-06-11T09:19:55.752Z,950.98
2018-06-11T09:22:22.066Z,951.04
2018-06-11T09:24:48.349Z,950.93
2018-06-11T09:27:14.640Z,950.91
2018-06-11T09:29:40.935Z,950.94
2018-06-11T09:32:07.221Z,950.89
2018-06-11T09:34:33.511Z,950.89
2018-06-11T09:36:59.844Z,950.84
2018-06-11T09:39:26.137Z,950.77
2018-06-11T09:41:52.477Z,950.82
2018-06-11T09:44:18.760Z,950.92
2018-06-11T09:46:45.094Z,950.75
2018-06-11T09:49:11.407Z,950.83
2018-06-11T09:51:37.727Z,950.82
2018-06-11T09:54:04.015Z,950.80
2018-06-11T09:56:30.355Z,950.71
2018-06-11T09:58:56.643Z,950.74
2018-06-11T10:01:22.934Z,950.78
2018-06-11T10:03:49.265Z,950.76
2018-06-11T10:06:15.558Z,950.70
2018-06-11T10:08:41.850Z,950.72
2018-06-11T10:11:08.142Z,950.73
2018-06-11T10:13:34.481Z,950.65
2018-06-11T10:16:00.741Z,950.53
2018-06-11T10:18:27.034Z,950.59
2018-06-11T10:20:53.337Z,950.63
2018-06-11T10:23:19.636Z,950.64
2018-06-11T10:25:45.936Z,950.58
2018-06-11T10:28:12.227Z,950.52
2018-06-11T10:30:38.564Z,950.47
2018-06-11T10:33:04.855Z,950.40
2018-06-11T10:35:31.200Z,950.39
2018-06-11T10:37:57.510Z,950.37
2018-06-11T10:40:23.800Z,950.43
2018-06-11T10:42:50.099Z,950.48
2018-06-11T10:45:16.390Z,950.39
2018-06-11T10:47:42.678Z,950.45
2018-06-11T10:50:08.972Z,950.41
2018-06-11T10:52:35.260Z,950.31
2018-06-11T10:55:01.552Z,950.30
2018-06-11T10:57:27.840Z,950.28
2018-06-11T10:59:54.130Z,950.32
2018-06-11T11:02:20.418Z,950.28
2018-06-11T11:04:46.707Z,950.20
2018-06-11T11:07:12.999Z,950.10
2018-06-11T11:09:39.293Z,950.06
2018-06-11T11:12:05.589Z,950.03
2018-06-11T11:14:31.883Z,950.06
2018-06-11T11:16:58.182Z,950.09
2018-06-11T11:19:24.512Z,950.09
2018-06-11T11:21:50.859Z,949.99
2018-06-11T11:24:17.103Z,949.95
2018-06-11T11:26:43.393Z,950.03
2018-06-11T11:29:09.689Z,950.14
2018-06-11T11:31:36.035Z,949.88
2018-06-11T11:34:02.308Z,949.92
2018-06-11T11:36:28.597Z,949.94
2018-06-11T11:38:54.894Z,949.87
2018-06-11T11:41:21.225Z,949.93
2018-06-11T11:43:47.510Z,949.83
2018-06-11T11:46:13.842Z,949.82
2018-06-11T11:48:40.180Z,949.86
2018-06-11T11:51:06.483Z,949.85
2018-06-11T11:53:32.765Z,949.78
2018-06-11T11:55:59.057Z,949.76
2018-06-11T11:58:25.355Z,949.74
2018-06-11T12:00:51.677Z,949.87
2018-06-11T12:03:17.966Z,949.69
2018-06-11T12:05:44.263Z,949.62
2018-06-11T12:08:10.558Z,949.61
2018-06-11T12:10:36.890Z,949.64
2018-06-11T12:13:03.195Z,949.62
2018-06-11T12:15:29.488Z,949.62
2018-06-11T12:17:55.828Z,949.59
2018-06-11T12:20:22.122Z,949.52
2018-06-11T12:22:48.409Z,949.52
2018-06-11T12:25:14.747Z,949.52
2018-06-11T12:27:41.046Z,949.60
2018-06-11T12:30:07.335Z,949.59
2018-06-11T12:32:33.628Z,949.52
2018-06-11T12:34:59.924Z,949.59
2018-06-11T12:37:26.217Z,949.48
2018-06-11T12:39:52.511Z,949.52
2018-06-11T12:42:18.799Z,949.51
2018-06-11T12:44:45.127Z,949.43
2018-06-11T12:47:11.410Z,949.47
2018-06-11T12:49:37.748Z,949.43
2018-06-11T12:52:04.034Z,949.40
2018-06-11T12:54:30.324Z,949.35
2018-06-11T12:56:56.613Z,949.24
2018-06-11T12:59:22.939Z,949.17
2018-06-11T13:01:49.270Z,949.07
2018-06-11T13:04:15.555Z,949.13
2018-06-11T13:06:41.932Z,948.94
2018-06-11T13:09:08.196Z,948.97
2018-06-11T13:11:34.482Z,949.04
2018-06-11T13:14:00.834Z,949.06
2018-06-11T13:16:27.134Z,949.10
2018-06-11T13:18:53.423Z,949.06
2018-06-11T13:21:19.717Z,949.11
2018-06-11T13:23:46.026Z,949.02
2018-06-11T13:26:12.327Z,948.95
2018-06-11T13:28:38.624Z,948.99
2018-06-11T13:31:04.927Z,948.98
2018-06-11T13:33:31.215Z,948.85
2018-06-11T13:35:57.517Z,948.92
2018-06-11T13:38:23.807Z,948.89
2018-06-11T13:40:50.101Z,948.81
2018-06-11T13:43:16.388Z,948.88
2018-06-11T13:45:42.683Z,948.89
2018-06-11T13:48:08.976Z,948.95
2018-06-11T13:50:35.266Z,948.96
2018-06-11T13:53:01.553Z,948.84
2018-06-11T13:55:27.842Z,948.88
2018-06-11T13:57:54.130Z,948.99
2018-06-11T14:00:20.414Z,948.97
2018-06-11T14:02:46.707Z,949.03
2018-06-11T14:05:12.990Z,948.90
2018-06-11T14:07:39.282Z,948.96
2018-06-11T14:10:05.583Z,949.01
2018-06-11T14:12:31.878Z,949.09
2018-06-11T14:14:58.218Z,949.09
2018-06-11T14:17:24.505Z,949.08
2018-06-11T14:19:50.803Z,949.01
2018-06-11T14:22:17.101Z,949.04
2018-06-11T14:24:43.402Z,949.09
2018-06-11T14:27:09.699Z,949.04
2018-06-11T14:29:35.999Z,949.02
2018-06-11T14:32:02.289Z,948.99
2018-06-11T14:34:28.603Z,948.85
2018-06-11T14:36:54.892Z,948.95
2018-06-11T14:39:21.187Z,948.95
2018-06-11T14:41:47.529Z,948.86
2018-06-11T14:44:13.822Z,948.87
2018-06-11T14:46:40.114Z,948.85
2018-06-11T14:49:06.409Z,948.84
2018-06-11T14:51:32.713Z,948.86
2018-06-11T14:53:59.018Z,948.72
2018-06-11T14:56:25.317Z,948.66
2018-06-11T14:58:51.608Z,948.68
2018-06-11T15:01:17.902Z,948.66
2018-06-11T15:03:44.223Z,948.69
2018-06-11T15:06:10.489Z,948.69
2018-06-11T15:08:36.798Z,948.66
2018-06-11T15:11:03.078Z,948.68
2018-06-11T15:13:29.363Z,948.67
2018-06-11T15:15:55.718Z,948.62
2018-06-11T15:18:22.015Z,948.67
2018-06-11T15:20:48.445Z,948.71
2018-06-11T15:23:14.678Z,948.77
2018-06-11T15:25:40.970Z,948.82
2018-06-11T15:28:07.258Z,948.77
2018-06-11T15:30:33.570Z,948.88
2018-06-11T15:32:59.865Z,948.89
2018-06-11T15:35:26.163Z,948.97
2018-06-11T15:37:52.466Z,948.92
2018-06-11T15:40:18.756Z,948.84
2018-06-11T15:42:45.053Z,948.83
2018-06-11T15:45:11.349Z,948.85
2018-06-11T15:47:37.649Z,948.87
2018-06-11T15:50:03.974Z,948.81
2018-06-11T15:52:30.271Z,948.85
2018-06-11T15:54:56.560Z,948.69
2018-06-11T15:57:22.857Z,948.71
2018-06-11T15:59:49.180Z,948.70
2018-06-11T16:02:15.473Z,948.68
2018-06-11T16:04:41.781Z,948.74
2018-06-11T16:07:08.097Z,948.72
2018-06-11T16:09:34.395Z,948.77
2018-06-11T16:12:00.713Z,948.80
2018-06-11T16:14:26.999Z,948.77
2018-06-11T16:16:53.298Z,948.81
2018-06-11T16:19:19.588Z,948.80
2018-06-11T16:21:45.877Z,948.84
2018-06-11T16:24:12.158Z,948.87
2018-06-11T16:26:38.454Z,948.87
2018-06-11T16:29:04.759Z,948.80
2018-06-11T16:31:31.047Z,948.82
2018-06-11T16:33:57.343Z,948.92
2018-06-11T16:36:23.642Z,948.90
2018-06-11T16:38:49.936Z,948.91
2018-06-11T16:41:16.224Z,948.99
2018-06-11T16:43:42.511Z,948.93
2018-06-11T16:46:08.799Z,948.89
2018-06-11T16:48:35.093Z,948.90
2018-06-11T16:51:01.393Z,948.89
2018-06-11T16:53:27.679Z,948.88
2018-06-11T16:55:53.989Z,948.93
2018-06-11T16:58:20.287Z,948.99
2018-06-11T17:00:46.580Z,948.83
2018-06-11T17:03:12.884Z,948.91
2018-06-11T17:05:39.179Z,948.95
2018-06-11T17:08:05.501Z,948.99
2018-06-11T17:10:31.806Z,948.91
2018-06-11T17:12:58.092Z,948.94
2018-06-11T17:15:24.382Z,948.97
2018-06-11T17:17:50.674Z,949.00
2018-06-11T17:20:17.038Z,948.92
2018-06-11T17:22:43.279Z,949.00
2018-06-11T17:25:09.573Z,948.96
2018-06-11T17:27:35.906Z,949.03
2018-06-11T17:30:02.206Z,949.01
2018-06-11T17:32:28.498Z,948.96
2018-06-11T17:34:54.795Z,949.03
2018-06-11T17:37:21.084Z,948.98
2018-06-11T17:39:47.388Z,949.02
2018-06-11T17:42:13.679Z,949.04
2018-06-11T17:44:40.033Z,949.05
2018-06-11T17:47:06.268Z,949.06
2018-06-11T17:49:32.564Z,949.04
2018-06-11T17:51:58.862Z,949.11
2018-06-11T17:54:25.170Z,949.15
2018-06-11T17:56:51.439Z,949.18
2018-06-11T17:59:17.737Z,949.20
2018-06-11T18:01:44.023Z,949.18
2018-06-11T18:04:10.403Z,949.23
2018-06-11T18:06:36.653Z,949.21
2018-06-11T18:09:02.957Z,949.29
2018-06-11T18:11:29.287Z,949.31
2018-06-11T18:13:55.616Z,949.38
2018-06-11T18:16:21.903Z,949.41
2018-06-11T18:18:48.195Z,949.42
2018-06-11T18:21:14.540Z,949.40
2018-06-11T18:23:42.176Z,949.49
2018-06-11T18:26:07.124Z,949.53
2018-06-11T18:28:33.418Z,949.59
2018-06-11T18:30:59.715Z,949.65
2018-06-11T18:33:26.001Z,949.59
2018-06-11T18:35:52.305Z,949.70
2018-06-11T18:38:18.601Z,949.74
2018-06-11T18:40:44.932Z,949.80
2018-06-11T18:43:11.261Z,949.78
2018-06-11T18:45:37.546Z,949.79
2018-06-11T18:48:03.881Z,949.80
2018-06-11T18:50:30.249Z,949.83
2018-06-11T18:52:56.535Z,949.87
2018-06-11T18:55:22.828Z,949.92
2018-06-11T18:57:49.135Z,949.94
2018-06-11T19:00:15.414Z,950.02
2018-06-11T19:02:41.715Z,950.01
2018-06-11T19:05:07.998Z,949.96
2018-06-11T19:07:34.301Z,950.01
2018-06-11T19:10:00.591Z,950.03
2018-06-11T19:12:26.888Z,950.12
2018-06-11T19:14:53.176Z,950.17
2018-06-11T19:17:19.470Z,950.16
2018-06-11T19:19:45.765Z,950.19
2018-06-11T19:22:12.055Z,950.20
2018-06-11T19:24:38.355Z,950.15
2018-06-11T19:27:04.649Z,950.18
2018-06-11T19:29:30.951Z,950.21
2018-06-11T19:31:57.250Z,950.25
2018-06-11T19:34:23.555Z,950.19
2018-06-11T19:36:49.857Z,950.26
2018-06-11T19:39:16.146Z,950.16
2018-06-11T19:41:42.470Z,950.24
2018-06-11T19:44:08.761Z,950.16
2018-06-11T19:46:35.051Z,950.12
2018-06-11T19:49:01.340Z,950.18
2018-06-11T19:51:27.634Z,950.21
2018-06-11T19:53:53.926Z,950.20
2018-06-11T19:56:20.211Z,950.16
2018-06-11T19:58:46.550Z,950.15
2018-06-11T20:01:12.843Z,950.11
2018-06-11T20:03:39.134Z,950.11
2018-06-11T20:06:05.428Z,950.10
2018-06-11T20:08:31.760Z,950.10
2018-06-11T20:10:58.057Z,950.12
2018-06-11T20:13:24.353Z,950.04
2018-06-11T20:15:50.720Z,950.11
2018-06-11T20:18:16.975Z,950.00
2018-06-11T20:20:43.317Z,950.02
2018-06-11T20:23:09.609Z,950.01
2018-06-11T20:25:35.895Z,950.04
2018-06-11T20:28:02.191Z,950.01
2018-06-11T20:30:28.515Z,950.04
2018-06-11T20:32:54.808Z,950.02
2018-06-11T20:35:21.100Z,950.01
2018-06-11T20:37:47.417Z,950.01
2018-06-11T20:40:13.703Z,950.05
2018-06-11T20:42:39.996Z,950.06
2018-06-11T20:45:06.284Z,950.13
2018-06-11T20:47:32.878Z,950.12
2018-06-11T20:49:59.206Z,950.16
2018-06-11T20:52:25.536Z,950.08
2018-06-11T20:54:51.838Z,950.09
2018-06-11T20:57:18.129Z,950.11
2018-06-11T20:59:44.420Z,950.04
2018-06-11T21:02:10.711Z,950.08
2018-06-11T21:04:36.998Z,950.13
2018-06-11T21:07:03.295Z,950.10
2018-06-11T21:09:29.589Z,950.18
2018-06-11T21:11:55.885Z,950.14
2018-06-11T21:14:22.180Z,950.15
2018-06-11T21:16:48.477Z,950.13
2018-06-11T21:19:14.770Z,950.16
2018-06-11T21:21:41.102Z,950.15
2018-06-11T21:24:07.409Z,950.24
2018-06-11T21:26:33.685Z,950.22
2018-06-11T21:28:59.984Z,950.24
2018-06-11T21:31:26.274Z,950.27
2018-06-11T21:33:52.562Z,950.26
2018-06-11T21:36:18.886Z,950.29
2018-06-11T21:38:45.216Z,950.27
2018-06-11T21:41:11.510Z,950.29
2018-06-11T21:43:37.806Z,950.27
2018-06-11T21:46:04.100Z,950.32
2018-06-11T21:48:30.399Z,950.29
2018-06-11T21:50:56.723Z,950.32
2018-06-11T21:53:23.014Z,950.35
2018-06-11T21:55:49.310Z,950.34
2018-06-11T21:58:15.606Z,950.35
2018-06-11T22:00:41.907Z,950.28
2018-06-11T22:03:08.284Z,950.22
2018-06-11T22:05:34.571Z,950.20
2018-06-11T22:08:00.884Z,950.19
2018-06-11T22:10:27.187Z,950.19
2018-06-11T22:12:53.505Z,950.15
2018-06-11T22:15:19.844Z,950.16
2018-06-11T22:17:46.143Z,950.11
2018-06-11T22:20:12.441Z,950.11
2018-06-11T22:22:38.725Z,950.12
2018-06-11T22:25:05.019Z,950.06
2018-06-11T22:27:31.340Z,950.07
2018-06-11T22:29:57.640Z,950.12
2018-06-11T22:32:23.989Z,950.12
2018-06-11T22:34:50.283Z,950.08
2018-06-11T22:37:16.571Z,950.15
2018-06-11T22:39:42.909Z,950.18
2018-06-11T22:42:09.200Z,950.13
2018-06-11T22:44:35.501Z,950.18
2018-06-11T22:47:01.803Z,950.24
2018-06-11T22:49:28.094Z,950.14
2018-06-11T22:51:54.390Z,950.12
2018-06-11T22:54:20.723Z,950.11
2018-06-11T22:56:47.008Z,950.11
2018-06-11T22:59:13.299Z,950.14
2018-06-11T23:01:39.593Z,950.16
2018-06-11T23:04:05.886Z,950.14
2018-06-11T23:06:32.178Z,950.13
2018-06-11T23:08:58.472Z,950.14
2018-06-11T23:11:24.778Z,950.13
2018-06-11T23:13:51.104Z,950.04
2018-06-11T23:16:17.403Z,950.07
2018-06-11T23:18:43.696Z,950.05
2018-06-11T23:21:09.996Z,950.07
2018-06-11T23:23:36.344Z,949.97
2018-06-11T23:26:02.637Z,950.05
2018-06-11T23:28:28.923Z,950.01
2018-06-11T23:30:55.220Z,950.01
2018-06-11T23:33:21.505Z,950.06
2018-06-11T23:35:47.803Z,950.06
2018-06-11T23:38:14.092Z,950.03
2018-06-11T23:40:40.392Z,949.97
2018-06-11T23:43:06.679Z,949.95
2018-06-11T23:45:32.969Z,949.95
2018-06-11T23:47:59.259Z,949.96
2018-06-11T23:50:25.552Z,950.00
2018-06-11T23:52:51.842Z,949.89
2018-06-11T23:55:18.178Z,949.91
2018-06-11T23:57:44.462Z,949.91
